createdAt,value
2019-04-29T00:02:22.401Z,3.50
2019-04-29T00:04:50.969Z,3.50
2019-04-29T00:07:20.022Z,3.58
2019-04-29T00:09:48.619Z,3.72
2019-04-29T00:12:17.986Z,3.15
2019-04-29T00:14:49.006Z,3.30
2019-04-29T00:17:28.473Z,3.25
2019-04-29T00:20:01.518Z,3.72
2019-04-29T00:22:30.199Z,3.90
2019-04-29T00:24:58.852Z,3.55
2019-04-29T00:27:27.516Z,3.50
2019-04-29T00:29:56.174Z,3.60
2019-04-29T00:32:24.768Z,3.80
2019-04-29T00:34:53.371Z,3.20
2019-04-29T00:37:23.600Z,3.90
2019-04-29T00:40:10.034Z,3.95
2019-04-29T00:42:44.510Z,3.58
2019-04-29T00:45:14.609Z,3.70
2019-04-29T00:47:43.212Z,3.75
2019-04-29T00:50:12.509Z,3.47
2019-04-29T00:52:41.109Z,3.72
2019-04-29T00:55:14.331Z,3.72
2019-04-29T00:57:42.929Z,3.80
2019-04-29T01:00:14.869Z,4.15
2019-04-29T01:02:47.868Z,4.45
2019-04-29T01:05:16.464Z,3.40
2019-04-29T01:07:45.067Z,3.30
2019-04-29T01:10:14.159Z,3.33
2019-04-29T01:12:42.819Z,3.52
2019-04-29T01:15:12.024Z,4.10
2019-04-29T01:17:40.645Z,3.55
2019-04-29T01:20:10.421Z,3.60
2019-04-29T01:22:39.016Z,3.80
2019-04-29T01:25:07.776Z,4.15
2019-04-29T01:27:44.031Z,3.80
2019-04-29T01:30:15.669Z,3.40
2019-04-29T01:32:44.272Z,3.27
2019-04-29T01:35:12.874Z,3.70
2019-04-29T01:37:42.260Z,3.55
2019-04-29T01:40:16.061Z,3.27
2019-04-29T01:42:45.132Z,3.80
2019-04-29T01:45:13.753Z,3.80
2019-04-29T01:47:44.075Z,4.00
2019-04-29T01:50:12.977Z,4.15
2019-04-29T01:52:41.573Z,3.95
2019-04-29T01:55:10.179Z,3.37
2019-04-29T01:57:38.781Z,3.67
2019-04-29T02:00:12.263Z,3.87
2019-04-29T02:02:40.487Z,3.10
2019-04-29T02:05:09.093Z,4.15
2019-04-29T02:07:37.637Z,3.65
2019-04-29T02:10:14.269Z,3.22
2019-04-29T02:12:42.729Z,3.50
2019-04-29T02:15:11.637Z,3.15
2019-04-29T02:17:40.296Z,2.42
2019-04-29T02:20:09.658Z,2.90
2019-04-29T02:22:51.704Z,3.30
2019-04-29T02:25:21.930Z,3.55
2019-04-29T02:27:50.526Z,3.08
2019-04-29T02:30:30.975Z,3.45
2019-04-29T02:33:00.943Z,4.00
2019-04-29T02:35:29.571Z,3.80
2019-04-29T02:37:58.303Z,3.20
2019-04-29T02:40:28.405Z,3.87
2019-04-29T02:43:04.609Z,3.00
2019-04-29T02:45:34.806Z,3.20
2019-04-29T02:48:03.466Z,3.30
2019-04-29T02:50:32.158Z,4.20
2019-04-29T02:53:00.754Z,3.80
2019-04-29T02:55:30.984Z,3.50
2019-04-29T02:58:13.235Z,3.20
2019-04-29T03:00:59.731Z,3.47
2019-04-29T03:03:33.846Z,3.50
2019-04-29T03:06:04.123Z,3.40
2019-04-29T03:08:32.730Z,3.25
2019-04-29T03:11:01.350Z,3.15
2019-04-29T03:13:29.914Z,3.40
2019-04-29T03:16:01.185Z,3.55
2019-04-29T03:18:31.391Z,3.60
2019-04-29T03:21:07.648Z,2.90
2019-04-29T03:23:36.658Z,3.60
2019-04-29T03:26:05.270Z,3.17
2019-04-29T03:28:33.861Z,3.58
2019-04-29T03:31:02.534Z,3.17
2019-04-29T03:33:31.138Z,3.40
2019-04-29T03:35:59.723Z,3.10
2019-04-29T03:38:28.251Z,3.20
2019-04-29T03:40:56.728Z,3.22
2019-04-29T03:43:25.322Z,2.98
2019-04-29T03:45:53.884Z,3.45
2019-04-29T03:48:22.886Z,3.12
2019-04-29T03:50:51.498Z,3.15
2019-04-29T03:53:20.244Z,2.87
2019-04-29T03:55:50.485Z,3.00
2019-04-29T03:58:19.035Z,3.17
2019-04-29T04:00:49.257Z,3.77
2019-04-29T04:03:31.678Z,3.10
2019-04-29T04:06:10.995Z,3.20
2019-04-29T04:08:44.286Z,3.75
2019-04-29T04:11:12.884Z,3.10
2019-04-29T04:13:41.435Z,2.95
2019-04-29T04:16:11.912Z,3.87
2019-04-29T04:18:40.378Z,3.40
2019-04-29T04:21:08.979Z,3.85
2019-04-29T04:23:37.530Z,4.35
2019-04-29T04:26:06.214Z,3.60
2019-04-29T04:28:34.848Z,4.90
2019-04-29T04:31:06.742Z,3.80
2019-04-29T04:33:33.737Z,3.60
2019-04-29T04:36:02.347Z,4.08
2019-04-29T04:38:31.071Z,4.90
2019-04-29T04:41:03.667Z,4.97
2019-04-29T04:43:32.259Z,4.28
2019-04-29T04:46:00.797Z,4.72
2019-04-29T04:48:29.331Z,4.53
2019-04-29T04:50:57.958Z,5.22
2019-04-29T04:53:26.610Z,4.67
2019-04-29T04:55:56.838Z,4.08
2019-04-29T04:58:25.299Z,3.77
2019-04-29T05:00:53.967Z,4.33
2019-04-29T05:03:22.585Z,3.70
2019-04-29T05:05:51.188Z,4.58
2019-04-29T05:08:19.741Z,4.00
2019-04-29T05:10:48.571Z,4.00
2019-04-29T05:13:27.969Z,5.65
2019-04-29T05:15:47.483Z,3.55
2019-04-29T05:18:16.119Z,4.05
2019-04-29T05:20:44.825Z,3.98
2019-04-29T05:23:13.293Z,4.20
2019-04-29T05:25:41.822Z,4.80
2019-04-29T05:28:11.824Z,4.42
2019-04-29T05:30:40.359Z,3.77
2019-04-29T05:33:08.823Z,3.90
2019-04-29T05:35:40.363Z,3.62
2019-04-29T05:38:13.791Z,3.37
2019-04-29T05:40:44.209Z,4.22
2019-04-29T05:43:20.358Z,3.60
2019-04-29T05:46:07.475Z,3.33
2019-04-29T05:48:36.798Z,4.58
2019-04-29T05:51:07.099Z,3.00
2019-04-29T05:53:40.585Z,3.85
2019-04-29T05:56:09.038Z,4.17
2019-04-29T05:58:39.463Z,4.03
2019-04-29T06:01:09.564Z,4.10
2019-04-29T06:03:39.768Z,3.40
2019-04-29T06:06:08.708Z,3.65
2019-04-29T06:08:39.085Z,3.92
2019-04-29T06:11:09.086Z,4.40
2019-04-29T06:13:37.673Z,4.05
2019-04-29T06:16:06.288Z,3.87
2019-04-29T06:18:34.867Z,4.22
2019-04-29T06:21:09.423Z,4.37
2019-04-29T06:23:34.128Z,4.25
2019-04-29T06:26:02.740Z,3.90
2019-04-29T06:28:31.198Z,3.40
2019-04-29T06:31:00.226Z,3.65
2019-04-29T06:33:30.767Z,3.00
2019-04-29T06:35:59.203Z,3.45
2019-04-29T06:38:27.663Z,2.50
2019-04-29T06:40:56.369Z,3.27
2019-04-29T06:43:28.842Z,3.60
2019-04-29T06:45:55.291Z,3.12
2019-04-29T06:48:24.640Z,4.10
2019-04-29T06:50:53.172Z,4.15
2019-04-29T06:53:23.273Z,4.97
2019-04-29T06:55:51.928Z,5.10
2019-04-29T06:58:20.585Z,6.95
2019-04-29T07:00:50.994Z,5.83
2019-04-29T07:03:20.872Z,4.85
2019-04-29T07:05:51.490Z,5.33
2019-04-29T07:08:20.230Z,6.15
2019-04-29T07:10:48.728Z,9.70
2019-04-29T07:13:17.963Z,7.50
2019-04-29T07:15:48.898Z,5.92
2019-04-29T07:18:18.435Z,4.47
2019-04-29T07:20:47.038Z,3.92
2019-04-29T07:23:15.743Z,5.40
2019-04-29T07:25:44.515Z,5.60
2019-04-29T07:28:13.769Z,4.53
2019-04-29T07:31:00.317Z,4.08
2019-04-29T07:33:13.558Z,3.40
2019-04-29T07:35:42.890Z,4.00
2019-04-29T07:38:12.364Z,4.03
2019-04-29T07:40:43.280Z,4.87
2019-04-29T07:43:11.217Z,4.35
2019-04-29T07:45:50.338Z,4.17
2019-04-29T07:48:19.138Z,4.20
2019-04-29T07:50:47.736Z,4.92
2019-04-29T07:53:16.331Z,4.40
2019-04-29T07:55:44.928Z,4.25
2019-04-29T07:58:13.546Z,4.17
2019-04-29T08:00:44.628Z,4.40
2019-04-29T08:03:12.419Z,4.97
2019-04-29T08:05:41.826Z,4.60
2019-04-29T08:08:10.461Z,5.20
2019-04-29T08:10:53.570Z,4.78
2019-04-29T08:13:09.543Z,4.62
2019-04-29T08:15:41.632Z,3.42
2019-04-29T08:18:11.254Z,3.60
2019-04-29T08:20:41.835Z,4.67
2019-04-29T08:23:10.447Z,4.03
2019-04-29T08:25:38.978Z,3.67
2019-04-29T08:28:07.577Z,3.75
2019-04-29T08:30:36.233Z,4.08
2019-04-29T08:33:07.481Z,3.87
2019-04-29T08:35:36.866Z,3.20
2019-04-29T08:38:05.664Z,3.67
2019-04-29T08:40:34.480Z,3.20
2019-04-29T08:43:07.731Z,4.17
2019-04-29T08:45:40.597Z,4.65
2019-04-29T08:48:09.185Z,4.58
2019-04-29T08:50:37.858Z,4.28
2019-04-29T08:53:06.492Z,4.45
2019-04-29T08:55:36.550Z,4.70
2019-04-29T08:58:06.908Z,4.37
2019-04-29T09:00:36.002Z,6.03
2019-04-29T09:03:04.903Z,6.37
2019-04-29T09:05:33.364Z,5.62
2019-04-29T09:08:01.999Z,3.87
2019-04-29T09:10:32.990Z,4.00
2019-04-29T09:13:00.791Z,4.35
2019-04-29T09:15:29.258Z,4.20
2019-04-29T09:17:57.791Z,4.10
2019-04-29T09:20:26.329Z,3.60
2019-04-29T09:22:59.301Z,3.37
2019-04-29T09:25:29.591Z,4.17
2019-04-29T09:28:15.116Z,4.20
2019-04-29T09:30:42.417Z,4.45
2019-04-29T09:33:13.049Z,4.10
2019-04-29T09:35:41.353Z,3.25
2019-04-29T09:38:10.046Z,4.47
2019-04-29T09:40:40.356Z,4.80
2019-04-29T09:43:28.562Z,3.92
2019-04-29T09:46:10.926Z,4.62
2019-04-29T09:48:39.452Z,3.87
2019-04-29T09:51:17.129Z,4.35
2019-04-29T09:53:38.385Z,4.12
2019-04-29T09:56:06.984Z,4.28
2019-04-29T09:58:35.519Z,3.20
2019-04-29T10:01:18.936Z,3.10
2019-04-29T10:03:56.362Z,3.65
2019-04-29T10:06:26.607Z,3.30
2019-04-29T10:08:55.223Z,3.90
2019-04-29T10:11:23.827Z,4.65
2019-04-29T10:13:52.540Z,4.85
2019-04-29T10:16:31.774Z,5.28
2019-04-29T10:19:05.304Z,6.10
2019-04-29T10:21:31.495Z,4.37
2019-04-29T10:23:59.950Z,4.20
2019-04-29T10:26:28.620Z,4.95
2019-04-29T10:28:58.791Z,4.25
2019-04-29T10:31:32.582Z,4.83
2019-04-29T10:34:01.260Z,4.85
2019-04-29T10:36:29.998Z,4.70
2019-04-29T10:39:00.271Z,4.95
2019-04-29T10:41:40.450Z,5.33
2019-04-29T10:44:26.663Z,4.55
2019-04-29T10:47:02.940Z,6.00
2019-04-29T10:49:34.912Z,5.12
2019-04-29T10:52:04.643Z,5.22
2019-04-29T10:54:34.006Z,4.75
2019-04-29T10:57:02.788Z,4.00
2019-04-29T10:59:35.962Z,4.75
2019-04-29T11:02:26.841Z,5.50
2019-04-29T11:05:02.502Z,5.12
2019-04-29T11:07:44.173Z,4.92
2019-04-29T11:10:26.832Z,4.00
2019-04-29T11:12:55.894Z,4.60
2019-04-29T11:15:32.501Z,4.28
2019-04-29T11:18:03.328Z,5.15
2019-04-29T11:20:30.845Z,5.05
2019-04-29T11:23:09.312Z,5.20
2019-04-29T11:25:42.646Z,4.40
2019-04-29T11:28:12.002Z,5.53
2019-04-29T11:30:41.660Z,7.53
2019-04-29T11:33:11.842Z,7.37
2019-04-29T11:35:59.095Z,7.03
2019-04-29T11:38:33.457Z,6.80
2019-04-29T11:40:59.369Z,8.15
2019-04-29T11:43:28.404Z,6.30
2019-04-29T11:45:57.034Z,6.55
2019-04-29T11:48:25.722Z,8.33
2019-04-29T11:50:56.809Z,8.35
2019-04-29T11:53:25.411Z,7.58
2019-04-29T11:55:57.120Z,8.23
2019-04-29T11:58:26.096Z,8.15
2019-04-29T12:01:08.858Z,8.93
2019-04-29T12:03:43.057Z,8.70
2019-04-29T12:06:16.512Z,7.67
2019-04-29T12:08:48.022Z,7.25
2019-04-29T12:11:15.560Z,6.92
2019-04-29T12:13:48.544Z,8.40
2019-04-29T12:16:24.582Z,6.85
2019-04-29T12:18:53.744Z,8.48
2019-04-29T12:21:25.639Z,8.10
2019-04-29T12:23:55.987Z,8.60
2019-04-29T12:26:24.824Z,7.90
2019-04-29T12:28:53.688Z,7.83
2019-04-29T12:31:26.580Z,7.55
2019-04-29T12:33:59.346Z,13.95
2019-04-29T12:36:27.882Z,57.23
2019-04-29T12:39:03.914Z,30.97
2019-04-29T12:41:50.618Z,17.40
2019-04-29T12:44:34.377Z,13.98
2019-04-29T12:46:55.737Z,11.18
2019-04-29T12:49:24.412Z,7.83
2019-04-29T12:51:52.956Z,5.45
2019-04-29T12:54:21.596Z,5.40
2019-04-29T12:56:50.233Z,13.18
2019-04-29T12:59:18.848Z,13.13
2019-04-29T13:01:58.044Z,9.60
2019-04-29T13:04:39.185Z,6.90
2019-04-29T13:07:18.606Z,8.10
2019-04-29T13:09:48.866Z,12.40
2019-04-29T13:12:19.905Z,16.15
2019-04-29T13:15:07.876Z,16.02
2019-04-29T13:17:45.466Z,11.40
2019-04-29T13:20:14.459Z,10.32
2019-04-29T13:22:43.008Z,21.33
2019-04-29T13:25:15.650Z,17.05
2019-04-29T13:27:42.259Z,10.58
2019-04-29T13:30:16.028Z,7.50
2019-04-29T13:32:43.176Z,8.90
2019-04-29T13:35:12.893Z,9.40
2019-04-29T13:37:41.729Z,17.55
2019-04-29T13:40:12.195Z,15.58
2019-04-29T13:42:48.476Z,13.50
2019-04-29T13:45:14.899Z,15.70
2019-04-29T13:48:07.116Z,13.65
2019-04-29T13:50:44.410Z,11.30
2019-04-29T13:53:16.579Z,15.60
2019-04-29T13:55:48.188Z,21.07
2019-04-29T13:58:13.732Z,20.00
2019-04-29T14:01:00.068Z,16.35
2019-04-29T14:03:37.298Z,16.48
2019-04-29T14:06:07.489Z,15.43
2019-04-29T14:08:36.223Z,16.82
2019-04-29T14:11:05.198Z,16.65
2019-04-29T14:13:33.921Z,16.77
2019-04-29T14:16:02.501Z,17.42
2019-04-29T14:18:34.807Z,16.65
2019-04-29T14:21:01.476Z,14.87
2019-04-29T14:23:30.088Z,14.55
2019-04-29T14:25:58.670Z,14.23
2019-04-29T14:28:27.325Z,12.78
2019-04-29T14:30:56.077Z,12.37
2019-04-29T14:33:27.081Z,11.43
2019-04-29T14:35:59.805Z,11.65
2019-04-29T14:38:28.434Z,10.93
2019-04-29T14:40:57.070Z,10.28
2019-04-29T14:43:36.299Z,10.45
2019-04-29T14:46:15.712Z,10.03
2019-04-29T14:48:42.882Z,9.23
2019-04-29T14:51:12.066Z,11.05
2019-04-29T14:53:40.641Z,10.38
2019-04-29T14:56:09.213Z,10.38
2019-04-29T14:58:37.848Z,11.70
2019-04-29T15:01:24.629Z,12.63
2019-04-29T15:04:00.679Z,11.03
2019-04-29T15:06:29.651Z,11.05
2019-04-29T15:08:58.548Z,11.05
2019-04-29T15:11:31.885Z,10.38
2019-04-29T15:14:22.972Z,11.18
2019-04-29T15:16:49.555Z,11.70
2019-04-29T15:19:28.715Z,13.48
2019-04-29T15:21:59.226Z,11.50
2019-04-29T15:24:32.449Z,10.10
2019-04-29T15:26:57.987Z,10.05
2019-04-29T15:29:26.530Z,11.38
2019-04-29T15:31:55.003Z,11.38
2019-04-29T15:34:23.509Z,12.43
2019-04-29T15:36:52.094Z,9.58
2019-04-29T15:39:20.941Z,8.98
2019-04-29T15:41:53.883Z,9.90
2019-04-29T15:44:23.041Z,9.58
2019-04-29T15:46:51.138Z,7.75
2019-04-29T15:49:24.107Z,8.10
2019-04-29T15:51:51.067Z,8.95
2019-04-29T15:54:19.874Z,9.08
2019-04-29T15:56:48.735Z,9.85
2019-04-29T15:59:17.679Z,10.45
2019-04-29T16:01:46.447Z,10.10
2019-04-29T16:04:27.783Z,9.68
2019-04-29T16:07:17.634Z,10.78
2019-04-29T16:09:51.590Z,9.13
2019-04-29T16:12:19.333Z,10.43
2019-04-29T16:14:49.143Z,9.78
2019-04-29T16:17:20.719Z,10.18
2019-04-29T16:19:48.386Z,10.65
2019-04-29T16:22:19.746Z,9.30
2019-04-29T16:24:47.328Z,9.10
2019-04-29T16:27:16.141Z,10.60
2019-04-29T16:29:46.151Z,10.23
2019-04-29T16:32:16.750Z,8.93
2019-04-29T16:34:47.016Z,9.18
2019-04-29T16:37:19.180Z,9.95
2019-04-29T16:39:45.882Z,10.95
2019-04-29T16:42:19.106Z,10.50
2019-04-29T16:44:47.647Z,9.45
2019-04-29T16:47:16.841Z,9.40
2019-04-29T16:49:45.627Z,9.15
2019-04-29T16:52:14.328Z,8.55
2019-04-29T16:54:42.998Z,7.75
2019-04-29T16:57:11.541Z,9.40
2019-04-29T16:59:40.150Z,9.40
2019-04-29T17:02:09.067Z,10.60
2019-04-29T17:04:37.633Z,9.78
2019-04-29T17:07:14.062Z,10.30
2019-04-29T17:09:53.354Z,9.10
2019-04-29T17:12:22.416Z,9.28
2019-04-29T17:15:04.137Z,9.60
2019-04-29T17:17:28.893Z,10.75
2019-04-29T17:19:53.255Z,10.45
2019-04-29T17:22:25.887Z,9.60
2019-04-29T17:24:52.466Z,10.28
2019-04-29T17:27:41.201Z,11.03
2019-04-29T17:30:23.585Z,16.12
2019-04-29T17:33:09.324Z,14.40
2019-04-29T17:35:46.842Z,12.23
2019-04-29T17:38:09.542Z,13.53
2019-04-29T17:40:50.496Z,12.40
2019-04-29T17:43:27.106Z,11.85
2019-04-29T17:45:57.329Z,14.10
2019-04-29T17:48:36.371Z,14.78
2019-04-29T17:51:07.501Z,15.78
2019-04-29T17:53:37.764Z,16.02
2019-04-29T17:56:08.445Z,14.90
2019-04-29T17:58:43.867Z,17.52
2019-04-29T18:01:26.056Z,17.37
2019-04-29T18:04:11.790Z,19.98
2019-04-29T18:06:40.658Z,17.73
2019-04-29T18:09:26.102Z,13.85
2019-04-29T18:11:57.564Z,14.20
2019-04-29T18:14:30.854Z,15.98
2019-04-29T18:16:55.874Z,13.95
2019-04-29T18:19:30.786Z,13.85
2019-04-29T18:22:17.371Z,19.32
2019-04-29T18:24:59.368Z,17.02
2019-04-29T18:27:41.743Z,14.05
2019-04-29T18:30:12.318Z,13.85
2019-04-29T18:32:46.633Z,13.78
2019-04-29T18:35:12.596Z,14.10
2019-04-29T18:37:41.063Z,12.60
2019-04-29T18:40:10.000Z,12.65
2019-04-29T18:42:43.166Z,12.73
2019-04-29T18:45:09.488Z,15.13
2019-04-29T18:47:38.867Z,13.05
2019-04-29T18:50:08.971Z,11.88
2019-04-29T18:52:37.588Z,12.80
2019-04-29T18:55:07.659Z,11.70
2019-04-29T18:57:36.327Z,13.00
2019-04-29T19:00:12.730Z,14.03
2019-04-29T19:02:45.390Z,12.75
2019-04-29T19:05:17.312Z,12.70
2019-04-29T19:07:55.029Z,13.93
2019-04-29T19:10:18.632Z,15.03
2019-04-29T19:12:57.402Z,15.83
2019-04-29T19:15:18.444Z,17.00
2019-04-29T19:17:58.720Z,15.50
2019-04-29T19:20:18.670Z,16.20
2019-04-29T19:22:47.455Z,16.10
2019-04-29T19:25:16.374Z,17.77
2019-04-29T19:27:45.524Z,15.58
2019-04-29T19:30:20.865Z,17.40
2019-04-29T19:32:46.896Z,18.70
2019-04-29T19:35:17.001Z,19.75
2019-04-29T19:37:45.935Z,23.40
2019-04-29T19:40:15.166Z,23.57
2019-04-29T19:42:46.897Z,27.17
2019-04-29T19:45:17.160Z,25.95
2019-04-29T19:47:52.018Z,27.37
2019-04-29T19:50:19.529Z,29.55
2019-04-29T19:52:47.539Z,37.17
2019-04-29T19:55:16.183Z,30.85
2019-04-29T19:57:51.552Z,31.75
2019-04-29T20:00:17.779Z,31.23
2019-04-29T20:02:50.134Z,19.87
2019-04-29T20:05:18.355Z,15.28
2019-04-29T20:07:50.746Z,16.87
2019-04-29T20:10:18.942Z,17.45
2019-04-29T20:12:53.095Z,17.67
2019-04-29T20:15:19.064Z,16.70
2019-04-29T20:18:07.975Z,14.47
2019-04-29T20:20:41.883Z,13.48
2019-04-29T20:23:10.919Z,15.50
2019-04-29T20:25:39.937Z,19.15
2019-04-29T20:28:17.014Z,21.17
2019-04-29T20:30:39.548Z,15.38
2019-04-29T20:33:11.387Z,16.25
2019-04-29T20:35:40.479Z,14.60
2019-04-29T20:38:09.393Z,21.05
2019-04-29T20:40:42.825Z,22.85
2019-04-29T20:43:08.734Z,23.02
2019-04-29T20:45:37.654Z,24.92
2019-04-29T20:48:06.792Z,23.30
2019-04-29T20:50:35.741Z,21.80
2019-04-29T20:53:09.307Z,22.07
2019-04-29T20:55:38.599Z,20.55
2019-04-29T20:58:07.497Z,22.80
2019-04-29T21:00:38.366Z,21.87
2019-04-29T21:03:09.356Z,20.12
2019-04-29T21:05:47.472Z,21.23
2019-04-29T21:08:14.440Z,20.92
2019-04-29T21:10:43.047Z,21.60
2019-04-29T21:13:16.168Z,19.42
2019-04-29T21:15:51.958Z,20.60
2019-04-29T21:18:15.906Z,19.10
2019-04-29T21:20:45.179Z,19.87
2019-04-29T21:23:15.084Z,17.40
2019-04-29T21:25:43.557Z,19.87
2019-04-29T21:28:12.237Z,19.95
2019-04-29T21:30:42.713Z,18.23
2019-04-29T21:33:18.321Z,17.40
2019-04-29T21:35:49.532Z,19.35
2019-04-29T21:38:26.028Z,18.73
2019-04-29T21:40:56.143Z,18.57
2019-04-29T21:43:26.418Z,17.82
2019-04-29T21:45:55.659Z,17.37
2019-04-29T21:48:33.065Z,17.52
2019-04-29T21:50:55.706Z,18.60
2019-04-29T21:53:25.184Z,19.95
2019-04-29T21:55:55.442Z,20.25
2019-04-29T21:58:24.289Z,17.23
2019-04-29T22:00:55.896Z,22.25
2019-04-29T22:03:24.595Z,22.60
2019-04-29T22:05:55.241Z,24.23
2019-04-29T22:08:27.557Z,21.85
2019-04-29T22:10:58.116Z,21.87
2019-04-29T22:13:24.936Z,20.37
2019-04-29T22:15:53.450Z,20.27
2019-04-29T22:18:22.019Z,20.23
2019-04-29T22:20:50.604Z,19.60
2019-04-29T22:23:19.225Z,20.10
2019-04-29T22:25:47.827Z,19.30
2019-04-29T22:28:19.685Z,20.00
2019-04-29T22:30:49.931Z,20.52
2019-04-29T22:33:17.274Z,19.35
2019-04-29T22:35:45.818Z,19.80
2019-04-29T22:38:16.702Z,19.85
2019-04-29T22:40:45.351Z,17.40
2019-04-29T22:43:18.376Z,17.27
2019-04-29T22:45:47.187Z,19.87
2019-04-29T22:48:19.525Z,19.70
2019-04-29T22:50:47.392Z,18.32
2019-04-29T22:53:16.382Z,19.52
2019-04-29T22:55:45.322Z,19.25
2019-04-29T22:58:15.127Z,20.10
2019-04-29T23:00:43.866Z,19.55
2019-04-29T23:03:12.503Z,20.35
2019-04-29T23:05:41.178Z,18.60
2019-04-29T23:08:09.808Z,19.12
2019-04-29T23:10:38.601Z,20.02
2019-04-29T23:13:07.217Z,22.25
2019-04-29T23:15:35.965Z,22.87
2019-04-29T23:18:06.187Z,23.67
2019-04-29T23:20:52.752Z,22.60
2019-04-29T23:23:29.145Z,20.37
2019-04-29T23:25:55.692Z,19.42
2019-04-29T23:28:26.996Z,20.27
2019-04-29T23:30:54.857Z,20.02
2019-04-29T23:33:25.854Z,19.00
2019-04-29T23:35:53.767Z,19.95
2019-04-29T23:38:22.234Z,18.00
2019-04-29T23:40:54.441Z,19.30
2019-04-29T23:43:25.334Z,16.07
2019-04-29T23:45:55.974Z,18.00
2019-04-29T23:48:23.839Z,18.25
2019-04-29T23:50:56.633Z,17.77
2019-04-29T23:53:25.204Z,19.10
2019-04-29T23:55:53.149Z,18.42
2019-04-29T23:58:26.155Z,18.17
